sensor_id;sensor_type;location;lat;lon;timestamp;temperature;humidity
48912;DHT22;34722;52.108;5.044;2023-02-26T00:00:57;0.70;99.90
48912;DHT22;34722;52.108;5.044;2023-02-26T00:03:23;0.80;99.90
48912;DHT22;34722;52.108;5.044;2023-02-26T00:05:50;0.90;99.90
48912;DHT22;34722;52.108;5.044;2023-02-26T00:08:16;0.90;99.90
48912;DHT22;34722;52.108;5.044;2023-02-26T00:14:18;1.20;99.90
48912;DHT22;34722;52.108;5.044;2023-02-26T00:16:49;1.50;99.90
48912;DHT22;34722;52.108;5.044;2023-02-26T00:19:47;1.60;99.90
48912;DHT22;34722;52.108;5.044;2023-02-26T00:22:13;1.80;99.90
48912;DHT22;34722;52.108;5.044;2023-02-26T00:27:55;2.20;99.90
48912;DHT22;34722;52.108;5.044;2023-02-26T00:30:24;2.40;99.90
48912;DHT22;34722;52.108;5.044;2023-02-26T00:32:52;2.60;51.20
48912;DHT22;34722;52.108;5.044;2023-02-26T00:38:42;2.70;1.00
48912;DHT22;34722;52.108;5.044;2023-02-26T00:44:22;2.60;1.00
48912;DHT22;34722;52.108;5.044;2023-02-26T00:47:09;2.60;1.00
48912;DHT22;34722;52.108;5.044;2023-02-26T00:55:36;2.60;99.90
48912;DHT22;34722;52.108;5.044;2023-02-26T00:58:02;2.70;52.40
48912;DHT22;34722;52.108;5.044;2023-02-26T01:00:49;2.70;99.90
48912;DHT22;34722;52.108;5.044;2023-02-26T01:03:54;2.70;99.90
48912;DHT22;34722;52.108;5.044;2023-02-26T01:06:21;2.60;99.90
48912;DHT22;34722;52.108;5.044;2023-02-26T01:12:13;2.50;1.00
48912;DHT22;34722;52.108;5.044;2023-02-26T01:14:42;2.40;1.00
48912;DHT22;34722;52.108;5.044;2023-02-26T01:19:57;2.20;99.90
48912;DHT22;34722;52.108;5.044;2023-02-26T01:22:54;2.20;1.00
48912;DHT22;34722;52.108;5.044;2023-02-26T01:28:45;2.10;99.90
48912;DHT22;34722;52.108;5.044;2023-02-26T01:34:02;1.80;99.90
48912;DHT22;34722;52.108;5.044;2023-02-26T01:36:37;1.70;99.90
48912;DHT22;34722;52.108;5.044;2023-02-26T01:39:18;1.60;99.90
48912;DHT22;34722;52.108;5.044;2023-02-26T01:41:53;1.50;99.90
48912;DHT22;34722;52.108;5.044;2023-02-26T01:44:32;1.50;1.00
48912;DHT22;34722;52.108;5.044;2023-02-26T01:48:06;1.60;99.90
48912;DHT22;34722;52.108;5.044;2023-02-26T01:50:15;1.50;1.00
48912;DHT22;34722;52.108;5.044;2023-02-26T01:55:18;1.60;99.90
48912;DHT22;34722;52.108;5.044;2023-02-26T01:57:44;1.50;42.60
48912;DHT22;34722;52.108;5.044;2023-02-26T02:00:10;1.50;1.00
48912;DHT22;34722;52.108;5.044;2023-02-26T02:02:36;1.40;1.00
48912;DHT22;34722;52.108;5.044;2023-02-26T02:05:06;1.40;1.00
48912;DHT22;34722;52.108;5.044;2023-02-26T02:07:34;1.30;1.00
48912;DHT22;34722;52.108;5.044;2023-02-26T02:09:59;1.20;1.00
48912;DHT22;34722;52.108;5.044;2023-02-26T02:12:39;1.30;1.00
48912;DHT22;34722;52.108;5.044;2023-02-26T02:15:35;1.20;99.90
48912;DHT22;34722;52.108;5.044;2023-02-26T02:18:10;1.20;1.00
48912;DHT22;34722;52.108;5.044;2023-02-26T02:21:04;1.20;99.90
48912;DHT22;34722;52.108;5.044;2023-02-26T02:26:39;1.10;99.90
48912;DHT22;34722;52.108;5.044;2023-02-26T02:31:44;1.00;99.90
48912;DHT22;34722;52.108;5.044;2023-02-26T02:34:19;1.00;99.90
48912;DHT22;34722;52.108;5.044;2023-02-26T02:37:20;1.20;1.00
48912;DHT22;34722;52.108;5.044;2023-02-26T02:42:48;1.30;99.90
48912;DHT22;34722;52.108;5.044;2023-02-26T02:45:24;1.30;99.90
48912;DHT22;34722;52.108;5.044;2023-02-26T02:48:00;1.40;99.90
48912;DHT22;34722;52.108;5.044;2023-02-26T02:50:32;1.30;99.90
48912;DHT22;34722;52.108;5.044;2023-02-26T02:53:04;1.30;36.90
48912;DHT22;34722;52.108;5.044;2023-02-26T02:55:43;1.20;18.90
48912;DHT22;34722;52.108;5.044;2023-02-26T02:58:12;1.20;17.00
48912;DHT22;34722;52.108;5.044;2023-02-26T03:00:45;1.20;5.70
48912;DHT22;34722;52.108;5.044;2023-02-26T03:03:34;1.30;1.00
48912;DHT22;34722;52.108;5.044;2023-02-26T03:06:00;1.20;1.00
48912;DHT22;34722;52.108;5.044;2023-02-26T03:08:29;1.20;1.00
48912;DHT22;34722;52.108;5.044;2023-02-26T03:10:56;1.20;1.00
48912;DHT22;34722;52.108;5.044;2023-02-26T03:13:23;1.20;1.00
48912;DHT22;34722;52.108;5.044;2023-02-26T03:19:14;1.10;1.00
48912;DHT22;34722;52.108;5.044;2023-02-26T03:21:45;1.10;1.00
48912;DHT22;34722;52.108;5.044;2023-02-26T03:24:42;1.00;1.00
48912;DHT22;34722;52.108;5.044;2023-02-26T03:27:34;0.90;1.00
48912;DHT22;34722;52.108;5.044;2023-02-26T03:32:45;0.70;1.00
48912;DHT22;34722;52.108;5.044;2023-02-26T03:35:17;0.60;1.40
48912;DHT22;34722;52.108;5.044;2023-02-26T03:37:49;0.70;1.00
48912;DHT22;34722;52.108;5.044;2023-02-26T03:42:52;0.60;5.00
48912;DHT22;34722;52.108;5.044;2023-02-26T03:45:31;0.60;12.20
48912;DHT22;34722;52.108;5.044;2023-02-26T03:47:59;0.70;27.60
48912;DHT22;34722;52.108;5.044;2023-02-26T03:50:31;0.60;34.40
48912;DHT22;34722;52.108;5.044;2023-02-26T03:52:59;0.50;44.00
48912;DHT22;34722;52.108;5.044;2023-02-26T03:55:40;0.50;58.40
48912;DHT22;34722;52.108;5.044;2023-02-26T03:58:06;0.40;77.30
48912;DHT22;34722;52.108;5.044;2023-02-26T04:00:33;0.50;83.80
48912;DHT22;34722;52.108;5.044;2023-02-26T04:03:23;0.50;99.90
48912;DHT22;34722;52.108;5.044;2023-02-26T04:05:52;0.40;99.90
48912;DHT22;34722;52.108;5.044;2023-02-26T04:08:20;0.40;99.90
48912;DHT22;34722;52.108;5.044;2023-02-26T04:10:58;0.40;99.90
48912;DHT22;34722;52.108;5.044;2023-02-26T04:13:25;0.40;99.90
48912;DHT22;34722;52.108;5.044;2023-02-26T04:15:51;0.30;99.90
48912;DHT22;34722;52.108;5.044;2023-02-26T04:18:16;0.40;99.90
48912;DHT22;34722;52.108;5.044;2023-02-26T04:20:42;0.40;99.90
48912;DHT22;34722;52.108;5.044;2023-02-26T04:23:07;0.30;99.90
48912;DHT22;34722;52.108;5.044;2023-02-26T04:25:33;0.30;99.90
48912;DHT22;34722;52.108;5.044;2023-02-26T04:27:59;0.30;99.90
48912;DHT22;34722;52.108;5.044;2023-02-26T04:30:24;0.30;99.90
48912;DHT22;34722;52.108;5.044;2023-02-26T04:32:50;0.20;99.90
48912;DHT22;34722;52.108;5.044;2023-02-26T04:35:16;0.20;99.90
48912;DHT22;34722;52.108;5.044;2023-02-26T04:37:41;0.20;99.90
48912;DHT22;34722;52.108;5.044;2023-02-26T04:40:07;0.10;99.90
48912;DHT22;34722;52.108;5.044;2023-02-26T04:42:33;0.10;99.90
48912;DHT22;34722;52.108;5.044;2023-02-26T04:44:59;0.10;99.90
48912;DHT22;34722;52.108;5.044;2023-02-26T04:47:24;0.10;99.90
48912;DHT22;34722;52.108;5.044;2023-02-26T04:49:50;-0.10;99.90
48912;DHT22;34722;52.108;5.044;2023-02-26T04:52:15;-0.10;99.90
48912;DHT22;34722;52.108;5.044;2023-02-26T04:54:41;-0.20;1.00
48912;DHT22;34722;52.108;5.044;2023-02-26T04:57:07;-0.20;1.00
48912;DHT22;34722;52.108;5.044;2023-02-26T04:59:32;-0.30;1.00
48912;DHT22;34722;52.108;5.044;2023-02-26T05:01:58;-0.40;99.90
48912;DHT22;34722;52.108;5.044;2023-02-26T05:04:24;-0.50;1.00
48912;DHT22;34722;52.108;5.044;2023-02-26T05:06:49;-0.60;99.90
48912;DHT22;34722;52.108;5.044;2023-02-26T05:09:15;-0.70;99.90
48912;DHT22;34722;52.108;5.044;2023-02-26T05:11:41;-0.70;99.90
48912;DHT22;34722;52.108;5.044;2023-02-26T05:14:07;-0.90;1.00
48912;DHT22;34722;52.108;5.044;2023-02-26T05:16:32;-0.90;1.00
48912;DHT22;34722;52.108;5.044;2023-02-26T05:18:58;-0.90;1.00
48912;DHT22;34722;52.108;5.044;2023-02-26T05:21:23;-0.80;99.90
48912;DHT22;34722;52.108;5.044;2023-02-26T05:23:49;-0.80;99.90
48912;DHT22;34722;52.108;5.044;2023-02-26T05:26:15;-0.80;99.90
48912;DHT22;34722;52.108;5.044;2023-02-26T05:28:40;-0.90;99.90
48912;DHT22;34722;52.108;5.044;2023-02-26T05:31:10;-0.90;1.00
48912;DHT22;34722;52.108;5.044;2023-02-26T05:33:36;-0.90;1.00
48912;DHT22;34722;52.108;5.044;2023-02-26T05:36:02;-0.90;1.00
48912;DHT22;34722;52.108;5.044;2023-02-26T05:38:27;-0.70;99.90
48912;DHT22;34722;52.108;5.044;2023-02-26T05:40:57;-0.70;1.00
48912;DHT22;34722;52.108;5.044;2023-02-26T05:43:23;-0.80;99.90
48912;DHT22;34722;52.108;5.044;2023-02-26T05:45:50;-0.70;99.90
48912;DHT22;34722;52.108;5.044;2023-02-26T05:48:16;-0.80;12.90
48912;DHT22;34722;52.108;5.044;2023-02-26T05:50:41;-0.90;99.90
48912;DHT22;34722;52.108;5.044;2023-02-26T05:53:07;-0.90;1.00
48912;DHT22;34722;52.108;5.044;2023-02-26T05:55:33;-1.00;99.90
48912;DHT22;34722;52.108;5.044;2023-02-26T05:57:59;-1.10;99.90
48912;DHT22;34722;52.108;5.044;2023-02-26T06:00:25;-1.00;1.00
48912;DHT22;34722;52.108;5.044;2023-02-26T06:02:50;-1.20;1.00
48912;DHT22;34722;52.108;5.044;2023-02-26T06:05:16;-1.30;1.00
48912;DHT22;34722;52.108;5.044;2023-02-26T06:07:42;-1.30;99.90
48912;DHT22;34722;52.108;5.044;2023-02-26T06:10:08;-1.40;99.90
48912;DHT22;34722;52.108;5.044;2023-02-26T06:12:34;-1.50;99.90
48912;DHT22;34722;52.108;5.044;2023-02-26T06:15:00;-1.60;99.90
48912;DHT22;34722;52.108;5.044;2023-02-26T06:17:26;-1.60;1.00
48912;DHT22;34722;52.108;5.044;2023-02-26T06:19:52;-1.70;1.00
48912;DHT22;34722;52.108;5.044;2023-02-26T06:22:17;-1.70;1.00
48912;DHT22;34722;52.108;5.044;2023-02-26T06:24:43;-1.80;1.00
48912;DHT22;34722;52.108;5.044;2023-02-26T06:27:08;-1.90;1.00
48912;DHT22;34722;52.108;5.044;2023-02-26T06:29:34;-1.90;1.00
48912;DHT22;34722;52.108;5.044;2023-02-26T06:32:02;-1.90;1.00
48912;DHT22;34722;52.108;5.044;2023-02-26T06:34:28;-1.90;1.00
48912;DHT22;34722;52.108;5.044;2023-02-26T06:36:53;-1.80;1.00
48912;DHT22;34722;52.108;5.044;2023-02-26T06:39:19;-1.80;1.00
48912;DHT22;34722;52.108;5.044;2023-02-26T06:41:44;-1.70;1.00
48912;DHT22;34722;52.108;5.044;2023-02-26T06:44:10;-1.60;1.00
48912;DHT22;34722;52.108;5.044;2023-02-26T06:46:36;-1.50;1.00
48912;DHT22;34722;52.108;5.044;2023-02-26T06:49:02;-1.40;1.00
48912;DHT22;34722;52.108;5.044;2023-02-26T06:51:28;-1.20;1.00
48912;DHT22;34722;52.108;5.044;2023-02-26T06:53:55;-1.10;1.00
48912;DHT22;34722;52.108;5.044;2023-02-26T06:56:21;-1.00;99.90
48912;DHT22;34722;52.108;5.044;2023-02-26T06:58:47;-0.90;99.90
48912;DHT22;34722;52.108;5.044;2023-02-26T07:01:13;-0.80;99.90
48912;DHT22;34722;52.108;5.044;2023-02-26T07:03:39;-0.70;99.90
48912;DHT22;34722;52.108;5.044;2023-02-26T07:06:06;-0.70;99.90
48912;DHT22;34722;52.108;5.044;2023-02-26T07:08:44;-0.60;99.90
48912;DHT22;34722;52.108;5.044;2023-02-26T07:11:10;-0.50;99.90
48912;DHT22;34722;52.108;5.044;2023-02-26T07:13:39;-0.40;1.00
48912;DHT22;34722;52.108;5.044;2023-02-26T07:16:05;-0.30;1.00
48912;DHT22;34722;52.108;5.044;2023-02-26T07:18:35;-0.20;1.00
48912;DHT22;34722;52.108;5.044;2023-02-26T07:21:02;-0.10;99.90
48912;DHT22;34722;52.108;5.044;2023-02-26T07:23:27;-0.10;99.90
48912;DHT22;34722;52.108;5.044;2023-02-26T07:25:53;0.00;99.90
48912;DHT22;34722;52.108;5.044;2023-02-26T07:28:21;0.10;1.00
48912;DHT22;34722;52.108;5.044;2023-02-26T07:30:46;0.20;1.00
48912;DHT22;34722;52.108;5.044;2023-02-26T07:33:21;0.20;1.00
48912;DHT22;34722;52.108;5.044;2023-02-26T07:35:47;0.90;10.40
48912;DHT22;34722;52.108;5.044;2023-02-26T07:38:13;2.50;55.90
48912;DHT22;34722;52.108;5.044;2023-02-26T07:40:38;3.90;1.00
48912;DHT22;34722;52.108;5.044;2023-02-26T07:43:04;5.60;1.00
48912;DHT22;34722;52.108;5.044;2023-02-26T07:45:30;6.60;99.90
48912;DHT22;34722;52.108;5.044;2023-02-26T07:47:56;7.40;99.90
48912;DHT22;34722;52.108;5.044;2023-02-26T07:50:21;7.50;10.80
48912;DHT22;34722;52.108;5.044;2023-02-26T07:52:50;8.20;1.00
48912;DHT22;34722;52.108;5.044;2023-02-26T07:55:18;8.70;1.00
48912;DHT22;34722;52.108;5.044;2023-02-26T07:57:43;9.70;1.00
48912;DHT22;34722;52.108;5.044;2023-02-26T08:00:11;10.00;1.00
48912;DHT22;34722;52.108;5.044;2023-02-26T08:02:37;10.60;1.00
48912;DHT22;34722;52.108;5.044;2023-02-26T08:05:03;11.50;1.00
48912;DHT22;34722;52.108;5.044;2023-02-26T08:07:29;11.70;1.00
48912;DHT22;34722;52.108;5.044;2023-02-26T08:09:55;11.60;1.00
48912;DHT22;34722;52.108;5.044;2023-02-26T08:12:20;11.80;99.90
48912;DHT22;34722;52.108;5.044;2023-02-26T08:14:46;12.50;99.90
48912;DHT22;34722;52.108;5.044;2023-02-26T08:17:12;12.30;99.90
48912;DHT22;34722;52.108;5.044;2023-02-26T08:19:38;11.70;99.90
48912;DHT22;34722;52.108;5.044;2023-02-26T08:22:04;11.90;99.90
48912;DHT22;34722;52.108;5.044;2023-02-26T08:24:30;11.90;99.90
48912;DHT22;34722;52.108;5.044;2023-02-26T08:26:55;11.70;99.90
48912;DHT22;34722;52.108;5.044;2023-02-26T08:29:21;12.40;99.90
48912;DHT22;34722;52.108;5.044;2023-02-26T08:31:47;12.70;99.90
48912;DHT22;34722;52.108;5.044;2023-02-26T08:34:13;12.20;99.90
48912;DHT22;34722;52.108;5.044;2023-02-26T08:36:39;11.70;99.90
48912;DHT22;34722;52.108;5.044;2023-02-26T08:39:05;11.30;99.90
48912;DHT22;34722;52.108;5.044;2023-02-26T08:41:31;12.10;99.90
48912;DHT22;34722;52.108;5.044;2023-02-26T08:43:58;11.80;99.90
48912;DHT22;34722;52.108;5.044;2023-02-26T08:46:24;11.40;99.90
48912;DHT22;34722;52.108;5.044;2023-02-26T08:48:50;11.20;99.90
48912;DHT22;34722;52.108;5.044;2023-02-26T08:51:16;11.10;99.90
48912;DHT22;34722;52.108;5.044;2023-02-26T08:53:43;10.90;99.90
48912;DHT22;34722;52.108;5.044;2023-02-26T08:56:11;11.70;99.90
48912;DHT22;34722;52.108;5.044;2023-02-26T08:58:36;11.40;99.90
48912;DHT22;34722;52.108;5.044;2023-02-26T09:01:02;11.30;99.90
48912;DHT22;34722;52.108;5.044;2023-02-26T09:03:28;11.40;99.90
48912;DHT22;34722;52.108;5.044;2023-02-26T09:05:53;11.00;99.90
48912;DHT22;34722;52.108;5.044;2023-02-26T09:08:19;11.00;99.90
48912;DHT22;34722;52.108;5.044;2023-02-26T09:10:46;10.90;99.90
48912;DHT22;34722;52.108;5.044;2023-02-26T09:13:12;10.70;99.90
48912;DHT22;34722;52.108;5.044;2023-02-26T09:15:38;11.10;99.90
48912;DHT22;34722;52.108;5.044;2023-02-26T09:18:04;11.00;99.90
48912;DHT22;34722;52.108;5.044;2023-02-26T09:20:30;11.50;99.90
48912;DHT22;34722;52.108;5.044;2023-02-26T09:22:56;11.30;99.90
48912;DHT22;34722;52.108;5.044;2023-02-26T09:25:24;12.50;99.90
48912;DHT22;34722;52.108;5.044;2023-02-26T09:27:50;12.50;99.90
48912;DHT22;34722;52.108;5.044;2023-02-26T09:30:15;11.50;99.90
48912;DHT22;34722;52.108;5.044;2023-02-26T09:32:41;12.70;99.90
48912;DHT22;34722;52.108;5.044;2023-02-26T09:35:07;11.50;99.90
48912;DHT22;34722;52.108;5.044;2023-02-26T09:37:36;10.80;99.90
48912;DHT22;34722;52.108;5.044;2023-02-26T09:40:01;10.30;99.90
48912;DHT22;34722;52.108;5.044;2023-02-26T09:45:30;11.50;99.90
48912;DHT22;34722;52.108;5.044;2023-02-26T09:47:58;11.90;99.90
48912;DHT22;34722;52.108;5.044;2023-02-26T09:50:43;11.40;99.90
48912;DHT22;34722;52.108;5.044;2023-02-26T09:53:47;11.60;99.90
48912;DHT22;34722;52.108;5.044;2023-02-26T09:56:23;11.90;99.90
48912;DHT22;34722;52.108;5.044;2023-02-26T09:58:50;12.60;99.90
48912;DHT22;34722;52.108;5.044;2023-02-26T10:01:28;11.80;99.90
48912;DHT22;34722;52.108;5.044;2023-02-26T10:06:48;12.20;99.90
48912;DHT22;34722;52.108;5.044;2023-02-26T10:12:17;13.20;99.90
48912;DHT22;34722;52.108;5.044;2023-02-26T10:15:13;13.90;99.90
48912;DHT22;34722;52.108;5.044;2023-02-26T10:18:01;12.50;99.90
48912;DHT22;34722;52.108;5.044;2023-02-26T10:23:16;11.30;99.90
48912;DHT22;34722;52.108;5.044;2023-02-26T10:25:55;11.90;99.90
48912;DHT22;34722;52.108;5.044;2023-02-26T10:28:43;12.20;99.90
48912;DHT22;34722;52.108;5.044;2023-02-26T10:36:36;11.50;99.90
48912;DHT22;34722;52.108;5.044;2023-02-26T10:39:32;11.00;99.90
48912;DHT22;34722;52.108;5.044;2023-02-26T10:42:06;10.40;99.90
48912;DHT22;34722;52.108;5.044;2023-02-26T10:45:06;11.00;99.90
48912;DHT22;34722;52.108;5.044;2023-02-26T10:47:56;11.30;99.90
48912;DHT22;34722;52.108;5.044;2023-02-26T10:50:23;11.10;99.90
48912;DHT22;34722;52.108;5.044;2023-02-26T10:52:51;9.70;99.90
48912;DHT22;34722;52.108;5.044;2023-02-26T10:55:40;8.70;97.50
48912;DHT22;34722;52.108;5.044;2023-02-26T10:58:13;8.80;99.90
48912;DHT22;34722;52.108;5.044;2023-02-26T11:00:42;8.30;96.30
48912;DHT22;34722;52.108;5.044;2023-02-26T11:03:18;9.20;99.90
48912;DHT22;34722;52.108;5.044;2023-02-26T11:05:44;9.50;99.90
48912;DHT22;34722;52.108;5.044;2023-02-26T11:08:27;10.50;99.90
48912;DHT22;34722;52.108;5.044;2023-02-26T11:10:59;11.00;99.90
48912;DHT22;34722;52.108;5.044;2023-02-26T11:13:28;12.00;99.90
48912;DHT22;34722;52.108;5.044;2023-02-26T11:16:04;13.50;99.90
48912;DHT22;34722;52.108;5.044;2023-02-26T11:18:38;12.80;99.90
48912;DHT22;34722;52.108;5.044;2023-02-26T11:21:05;12.40;99.90
48912;DHT22;34722;52.108;5.044;2023-02-26T11:23:32;11.90;99.90
48912;DHT22;34722;52.108;5.044;2023-02-26T11:26:03;11.80;99.90
48912;DHT22;34722;52.108;5.044;2023-02-26T11:28:35;10.50;99.90
48912;DHT22;34722;52.108;5.044;2023-02-26T11:31:05;10.30;99.90
48912;DHT22;34722;52.108;5.044;2023-02-26T11:36:10;9.80;94.60
48912;DHT22;34722;52.108;5.044;2023-02-26T11:38:37;8.50;74.90
48912;DHT22;34722;52.108;5.044;2023-02-26T11:41:05;8.10;73.20
48912;DHT22;34722;52.108;5.044;2023-02-26T11:43:41;7.90;73.50
48912;DHT22;34722;52.108;5.044;2023-02-26T11:46:09;9.10;95.50
48912;DHT22;34722;52.108;5.044;2023-02-26T11:48:40;9.90;99.90
48912;DHT22;34722;52.108;5.044;2023-02-26T11:51:27;9.80;97.50
48912;DHT22;34722;52.108;5.044;2023-02-26T11:54:00;10.80;99.90
48912;DHT22;34722;52.108;5.044;2023-02-26T11:56:34;11.60;99.90
48912;DHT22;34722;52.108;5.044;2023-02-26T11:59:06;11.60;99.90
48912;DHT22;34722;52.108;5.044;2023-02-26T12:01:34;12.00;99.90
48912;DHT22;34722;52.108;5.044;2023-02-26T12:04:01;11.60;99.90
48912;DHT22;34722;52.108;5.044;2023-02-26T12:06:27;11.80;99.90
48912;DHT22;34722;52.108;5.044;2023-02-26T12:08:53;12.40;99.90
48912;DHT22;34722;52.108;5.044;2023-02-26T12:19:28;11.90;99.90
48912;DHT22;34722;52.108;5.044;2023-02-26T12:44:44;11.90;80.50
48912;DHT22;34722;52.108;5.044;2023-02-26T12:47:25;11.40;70.60
48912;DHT22;34722;52.108;5.044;2023-02-26T12:50:04;11.20;66.40
48912;DHT22;34722;52.108;5.044;2023-02-26T13:08:19;8.40;27.90
48912;DHT22;34722;52.108;5.044;2023-02-26T13:14:20;7.30;29.30
48912;DHT22;34722;52.108;5.044;2023-02-26T13:19:47;6.90;34.50
48912;DHT22;34722;52.108;5.044;2023-02-26T13:22:28;6.90;41.50
48912;DHT22;34722;52.108;5.044;2023-02-26T13:25:04;6.70;38.80
48912;DHT22;34722;52.108;5.044;2023-02-26T13:27:36;6.70;44.40
48912;DHT22;34722;52.108;5.044;2023-02-26T13:32:47;6.90;47.70
48912;DHT22;34722;52.108;5.044;2023-02-26T13:35:36;6.70;43.00
48912;DHT22;34722;52.108;5.044;2023-02-26T14:08:17;6.40;76.30
48912;DHT22;34722;52.108;5.044;2023-02-26T14:10:52;6.50;77.00
48912;DHT22;34722;52.108;5.044;2023-02-26T14:13:35;6.40;76.70
48912;DHT22;34722;52.108;5.044;2023-02-26T14:16:20;6.50;82.00
48912;DHT22;34722;52.108;5.044;2023-02-26T14:19:19;6.60;90.20
48912;DHT22;34722;52.108;5.044;2023-02-26T14:21:58;6.70;82.70
48912;DHT22;34722;52.108;5.044;2023-02-26T14:24:36;6.60;79.70
48912;DHT22;34722;52.108;5.044;2023-02-26T14:32:55;6.60;75.40
48912;DHT22;34722;52.108;5.044;2023-02-26T14:35:39;6.70;88.60
48912;DHT22;34722;52.108;5.044;2023-02-26T14:38:41;6.70;90.70
48912;DHT22;34722;52.108;5.044;2023-02-26T14:41:33;6.60;91.60
48912;DHT22;34722;52.108;5.044;2023-02-26T14:44:13;6.50;91.40
48912;DHT22;34722;52.108;5.044;2023-02-26T14:46:44;6.40;85.90
48912;DHT22;34722;52.108;5.044;2023-02-26T14:49:29;6.30;73.60
48912;DHT22;34722;52.108;5.044;2023-02-26T15:00:25;6.30;89.00
48912;DHT22;34722;52.108;5.044;2023-02-26T15:26:05;5.90;99.90
48912;DHT22;34722;52.108;5.044;2023-02-26T15:28:52;6.00;99.90
48912;DHT22;34722;52.108;5.044;2023-02-26T15:31:20;6.10;99.90
48912;DHT22;34722;52.108;5.044;2023-02-26T15:33:59;6.00;99.90
48912;DHT22;34722;52.108;5.044;2023-02-26T15:39:18;6.00;99.90
48912;DHT22;34722;52.108;5.044;2023-02-26T15:41:48;6.10;99.90
48912;DHT22;34722;52.108;5.044;2023-02-26T15:44:20;6.10;99.90
48912;DHT22;34722;52.108;5.044;2023-02-26T15:47:11;6.10;99.90
48912;DHT22;34722;52.108;5.044;2023-02-26T15:50:08;6.00;99.90
48912;DHT22;34722;52.108;5.044;2023-02-26T15:55:15;5.80;99.90
48912;DHT22;34722;52.108;5.044;2023-02-26T15:57:46;5.80;99.90
48912;DHT22;34722;52.108;5.044;2023-02-26T16:03:37;5.80;99.90
48912;DHT22;34722;52.108;5.044;2023-02-26T16:06:04;5.90;99.90
48912;DHT22;34722;52.108;5.044;2023-02-26T16:08:30;5.90;99.90
48912;DHT22;34722;52.108;5.044;2023-02-26T16:10:57;6.00;99.90
48912;DHT22;34722;52.108;5.044;2023-02-26T16:13:30;6.00;99.90
48912;DHT22;34722;52.108;5.044;2023-02-26T16:16:40;6.00;99.90
48912;DHT22;34722;52.108;5.044;2023-02-26T16:22:48;5.80;99.90
48912;DHT22;34722;52.108;5.044;2023-02-26T16:25:37;5.70;99.90
48912;DHT22;34722;52.108;5.044;2023-02-26T16:28:27;5.60;99.90
48912;DHT22;34722;52.108;5.044;2023-02-26T16:33:33;5.70;99.90
48912;DHT22;34722;52.108;5.044;2023-02-26T16:36:14;5.70;99.90
48912;DHT22;34722;52.108;5.044;2023-02-26T16:38:50;5.70;99.90
48912;DHT22;34722;52.108;5.044;2023-02-26T16:41:23;5.70;99.90
48912;DHT22;34722;52.108;5.044;2023-02-26T16:43:55;5.60;99.90
48912;DHT22;34722;52.108;5.044;2023-02-26T16:46:35;5.50;99.90
48912;DHT22;34722;52.108;5.044;2023-02-26T16:49:05;5.40;99.90
48912;DHT22;34722;52.108;5.044;2023-02-26T16:54:42;5.20;99.90
48912;DHT22;34722;52.108;5.044;2023-02-26T16:57:32;5.10;99.90
48912;DHT22;34722;52.108;5.044;2023-02-26T17:00:05;5.00;99.90
48912;DHT22;34722;52.108;5.044;2023-02-26T17:02:35;5.00;99.90
48912;DHT22;34722;52.108;5.044;2023-02-26T17:07:55;4.80;99.90
48912;DHT22;34722;52.108;5.044;2023-02-26T17:16:52;4.50;99.90
48912;DHT22;34722;52.108;5.044;2023-02-26T17:24:48;4.30;99.90
48912;DHT22;34722;52.108;5.044;2023-02-26T17:29:43;4.30;99.90
48912;DHT22;34722;52.108;5.044;2023-02-26T17:35:36;4.20;1.00
48912;DHT22;34722;52.108;5.044;2023-02-26T17:40:37;4.10;1.00
48912;DHT22;34722;52.108;5.044;2023-02-26T17:43:05;4.10;1.00
48912;DHT22;34722;52.108;5.044;2023-02-26T17:45:39;4.10;1.00
48912;DHT22;34722;52.108;5.044;2023-02-26T17:48:06;3.90;1.00
48912;DHT22;34722;52.108;5.044;2023-02-26T17:53:31;3.90;1.00
48912;DHT22;34722;52.108;5.044;2023-02-26T17:56:22;3.80;1.00
48912;DHT22;34722;52.108;5.044;2023-02-26T17:59:33;3.80;1.00
48912;DHT22;34722;52.108;5.044;2023-02-26T18:05:09;3.70;24.60
48912;DHT22;34722;52.108;5.044;2023-02-26T18:07:35;3.70;53.10
48912;DHT22;34722;52.108;5.044;2023-02-26T18:10:02;3.60;99.90
48912;DHT22;34722;52.108;5.044;2023-02-26T18:12:28;3.50;99.90
48912;DHT22;34722;52.108;5.044;2023-02-26T18:18:16;3.50;99.90
48912;DHT22;34722;52.108;5.044;2023-02-26T18:20:42;3.40;99.90
48912;DHT22;34722;52.108;5.044;2023-02-26T18:23:20;3.40;99.90
48912;DHT22;34722;52.108;5.044;2023-02-26T18:25:47;3.30;99.90
48912;DHT22;34722;52.108;5.044;2023-02-26T18:28:25;3.30;99.90
48912;DHT22;34722;52.108;5.044;2023-02-26T18:30:52;3.20;1.00
48912;DHT22;34722;52.108;5.044;2023-02-26T18:33:18;3.20;1.00
48912;DHT22;34722;52.108;5.044;2023-02-26T18:35:55;3.10;1.00
48912;DHT22;34722;52.108;5.044;2023-02-26T18:38:24;3.10;1.00
48912;DHT22;34722;52.108;5.044;2023-02-26T18:40:54;3.10;1.00
48912;DHT22;34722;52.108;5.044;2023-02-26T18:43:19;3.10;1.00
48912;DHT22;34722;52.108;5.044;2023-02-26T18:45:57;3.00;42.40
48912;DHT22;34722;52.108;5.044;2023-02-26T18:48:47;3.00;99.90
48912;DHT22;34722;52.108;5.044;2023-02-26T18:54:33;2.90;99.90
48912;DHT22;34722;52.108;5.044;2023-02-26T18:57:06;2.80;99.90
48912;DHT22;34722;52.108;5.044;2023-02-26T18:59:59;2.70;1.00
48912;DHT22;34722;52.108;5.044;2023-02-26T19:02:25;2.60;1.00
48912;DHT22;34722;52.108;5.044;2023-02-26T19:04:51;2.50;99.90
48912;DHT22;34722;52.108;5.044;2023-02-26T19:07:18;2.50;99.90
48912;DHT22;34722;52.108;5.044;2023-02-26T19:09:44;2.50;99.90
48912;DHT22;34722;52.108;5.044;2023-02-26T19:22:41;2.40;1.00
48912;DHT22;34722;52.108;5.044;2023-02-26T19:25:07;2.40;99.90
48912;DHT22;34722;52.108;5.044;2023-02-26T19:27:33;2.40;99.90
48912;DHT22;34722;52.108;5.044;2023-02-26T19:30:11;2.40;1.00
48912;DHT22;34722;52.108;5.044;2023-02-26T19:32:37;2.40;1.00
48912;DHT22;34722;52.108;5.044;2023-02-26T19:35:03;2.40;49.10
48912;DHT22;34722;52.108;5.044;2023-02-26T19:37:29;2.40;99.90
48912;DHT22;34722;52.108;5.044;2023-02-26T19:39:54;2.40;99.90
48912;DHT22;34722;52.108;5.044;2023-02-26T19:42:20;2.40;99.90
48912;DHT22;34722;52.108;5.044;2023-02-26T19:44:45;2.40;1.00
48912;DHT22;34722;52.108;5.044;2023-02-26T19:47:11;2.50;99.90
48912;DHT22;34722;52.108;5.044;2023-02-26T19:49:37;2.50;99.90
48912;DHT22;34722;52.108;5.044;2023-02-26T19:52:02;2.50;99.90
48912;DHT22;34722;52.108;5.044;2023-02-26T19:54:29;2.60;1.00
48912;DHT22;34722;52.108;5.044;2023-02-26T19:56:55;2.70;99.90
48912;DHT22;34722;52.108;5.044;2023-02-26T19:59:21;2.80;1.00
48912;DHT22;34722;52.108;5.044;2023-02-26T20:01:46;2.80;1.00
48912;DHT22;34722;52.108;5.044;2023-02-26T20:04:14;2.90;1.00
48912;DHT22;34722;52.108;5.044;2023-02-26T20:06:40;2.90;1.00
48912;DHT22;34722;52.108;5.044;2023-02-26T20:09:05;2.90;1.00
48912;DHT22;34722;52.108;5.044;2023-02-26T20:11:32;2.90;1.00
48912;DHT22;34722;52.108;5.044;2023-02-26T20:13:58;3.00;1.00
48912;DHT22;34722;52.108;5.044;2023-02-26T20:16:24;2.90;99.90
48912;DHT22;34722;52.108;5.044;2023-02-26T20:18:49;2.90;99.90
48912;DHT22;34722;52.108;5.044;2023-02-26T20:21:15;2.90;99.90
48912;DHT22;34722;52.108;5.044;2023-02-26T20:23:41;3.00;99.90
48912;DHT22;34722;52.108;5.044;2023-02-26T20:26:09;3.00;1.00
48912;DHT22;34722;52.108;5.044;2023-02-26T20:28:35;3.00;1.00